METAR Formatted Surface Weather Observation
Issued by NWS

Home | Current Version | Previous Version | Text Only | Print | Product List | Glossary On
Versions: 1 2 3 4 5 6 7 8 9 10 11 12 13
000
SAUS42 KTAE 180400
MTR1J0
METAR K1J0 180358Z AUTO 00000KT 10SM CLR 22/22 A2994 RMK AO2 SLP095
T02220217 PWINO $



USA.gov is the U.S. government's official web portal to all federal, state and local government web resources and services.